createdAt,value
2022-09-26T00:00:23.324Z,6.85
2022-09-26T00:02:51.162Z,6.15
2022-09-26T00:05:18.935Z,6.03
2022-09-26T00:07:46.774Z,6.38
2022-09-26T00:10:14.472Z,6.10
2022-09-26T00:12:43.522Z,8.35
2022-09-26T00:15:12.678Z,6.60
2022-09-26T00:17:40.429Z,6.13
2022-09-26T00:20:09.099Z,7.40
2022-09-26T00:22:36.780Z,5.95
2022-09-26T00:25:05.162Z,5.88
2022-09-26T00:27:32.896Z,6.05
2022-09-26T00:30:01.970Z,7.22
2022-09-26T00:32:29.629Z,7.47
2022-09-26T00:34:57.408Z,5.97
2022-09-26T00:37:25.093Z,7.65
2022-09-26T00:39:52.779Z,6.25
2022-09-26T00:42:23.633Z,7.28
2022-09-26T00:44:54.424Z,6.00
2022-09-26T00:47:38.742Z,6.82
2022-09-26T00:50:13.293Z,6.50
2022-09-26T00:52:46.109Z,6.20
2022-09-26T00:55:16.138Z,6.53
2022-09-26T00:57:47.557Z,7.00
2022-09-26T01:00:16.484Z,7.82
2022-09-26T01:02:47.486Z,7.70
2022-09-26T01:05:19.356Z,7.38
2022-09-26T01:07:47.667Z,8.82
2022-09-26T01:10:16.156Z,6.28
2022-09-26T01:12:43.982Z,6.78
2022-09-26T01:15:12.094Z,6.35
2022-09-26T01:17:42.778Z,6.80
2022-09-26T01:20:24.336Z,7.30
2022-09-26T01:23:37.735Z,7.38
2022-09-26T01:26:46.527Z,8.50
2022-09-26T01:29:32.783Z,7.68
2022-09-26T01:32:28.170Z,5.93
2022-09-26T01:35:02.602Z,7.68
2022-09-26T01:37:42.681Z,9.30
2022-09-26T01:40:18.192Z,6.47
2022-09-26T01:45:20.639Z,6.78
2022-09-26T01:47:56.102Z,8.27
2022-09-26T01:50:29.606Z,5.57
2022-09-26T01:53:02.111Z,6.40
2022-09-26T01:55:34.657Z,6.05
2022-09-26T01:58:07.319Z,7.20
2022-09-26T02:00:37.212Z,5.95
2022-09-26T02:03:10.483Z,6.57
2022-09-26T02:05:43.993Z,6.38
2022-09-26T02:08:16.163Z,5.97
2022-09-26T02:10:49.070Z,6.60
2022-09-26T02:13:21.424Z,6.30
2022-09-26T02:15:54.137Z,7.40
2022-09-26T02:18:30.750Z,10.07
2022-09-26T02:21:03.774Z,9.45
2022-09-26T02:23:31.867Z,7.15
2022-09-26T02:26:00.062Z,7.95
2022-09-26T02:28:28.438Z,9.98
2022-09-26T02:30:56.455Z,7.50
2022-09-26T02:33:26.210Z,8.30
2022-09-26T02:35:57.543Z,9.02
2022-09-26T02:38:27.335Z,8.23
2022-09-26T02:41:02.149Z,8.18
2022-09-26T02:43:58.231Z,10.10
2022-09-26T02:46:41.044Z,10.88
2022-09-26T02:49:25.369Z,9.27
2022-09-26T02:52:12.020Z,11.05
2022-09-26T02:54:57.403Z,10.43
2022-09-26T02:57:34.299Z,13.68
2022-09-26T03:00:07.617Z,13.65
2022-09-26T03:02:42.240Z,14.30
2022-09-26T03:05:16.220Z,14.43
2022-09-26T03:07:47.975Z,16.95
2022-09-26T03:10:17.527Z,14.32
2022-09-26T03:12:46.266Z,14.52
2022-09-26T03:15:15.469Z,16.58
2022-09-26T03:17:48.167Z,13.45
2022-09-26T03:20:19.583Z,14.63
2022-09-26T03:22:47.472Z,14.82
2022-09-26T03:25:18.639Z,13.52
2022-09-26T03:27:48.185Z,15.48
2022-09-26T03:30:18.134Z,14.32
2022-09-26T03:32:45.799Z,15.38
2022-09-26T03:35:13.594Z,16.40
2022-09-26T03:37:42.650Z,15.55
2022-09-26T03:40:12.881Z,15.20
2022-09-26T03:42:41.213Z,15.25
2022-09-26T03:45:11.370Z,15.68
2022-09-26T03:47:39.174Z,18.33
2022-09-26T03:50:07.578Z,14.75
2022-09-26T03:52:36.074Z,16.73
2022-09-26T03:55:05.730Z,14.20
2022-09-26T03:57:33.391Z,13.52
2022-09-26T04:00:01.104Z,12.68
2022-09-26T04:02:28.871Z,11.02
2022-09-26T04:04:56.669Z,12.15
2022-09-26T04:07:24.337Z,10.98
2022-09-26T04:09:52.100Z,12.02
2022-09-26T04:12:22.091Z,11.57
2022-09-26T04:14:49.808Z,11.10
2022-09-26T04:17:17.731Z,11.65
2022-09-26T04:19:45.389Z,10.30
2022-09-26T04:22:13.390Z,10.45
2022-09-26T04:24:41.640Z,12.45
2022-09-26T04:27:09.384Z,12.10
2022-09-26T04:29:38.390Z,12.95
2022-09-26T04:32:06.125Z,11.80
2022-09-26T04:34:33.910Z,11.75
2022-09-26T04:37:01.576Z,11.25
2022-09-26T04:39:29.236Z,12.88
2022-09-26T04:41:57.205Z,12.32
2022-09-26T04:44:24.982Z,10.02
2022-09-26T04:46:54.000Z,11.65
2022-09-26T04:49:21.649Z,16.23
2022-09-26T04:51:49.349Z,11.13
2022-09-26T04:54:17.199Z,10.65
2022-09-26T04:56:45.228Z,10.68
2022-09-26T04:59:12.959Z,10.70
2022-09-26T05:01:40.719Z,9.68
2022-09-26T05:04:10.044Z,8.70
2022-09-26T05:06:39.201Z,10.05
2022-09-26T05:09:07.013Z,9.90
2022-09-26T05:11:34.735Z,8.07
2022-09-26T05:14:04.225Z,9.90
2022-09-26T05:16:32.054Z,9.85
2022-09-26T05:18:59.816Z,11.05
2022-09-26T05:21:28.917Z,10.63
2022-09-26T05:24:14.187Z,12.63
2022-09-26T05:26:43.604Z,12.40
2022-09-26T05:29:12.163Z,11.88
2022-09-26T05:31:40.238Z,9.70
2022-09-26T05:34:15.418Z,13.10
2022-09-26T05:36:47.790Z,13.02
2022-09-26T05:39:33.134Z,10.57
2022-09-26T05:42:01.104Z,11.98
2022-09-26T05:44:30.077Z,10.57
2022-09-26T05:46:57.900Z,9.48
2022-09-26T05:49:25.916Z,11.50
2022-09-26T05:51:55.073Z,10.75
2022-09-26T05:54:22.843Z,13.25
2022-09-26T05:56:50.604Z,10.25
2022-09-26T05:59:18.837Z,13.70
2022-09-26T06:01:47.409Z,11.00
2022-09-26T06:04:15.227Z,11.20
2022-09-26T06:06:44.230Z,10.65
2022-09-26T06:09:13.303Z,11.30
2022-09-26T06:11:40.984Z,11.70
2022-09-26T06:14:10.115Z,11.88
2022-09-26T06:16:37.919Z,12.82
2022-09-26T06:19:05.921Z,12.63
2022-09-26T06:21:34.096Z,13.57
2022-09-26T06:24:02.439Z,15.35
2022-09-26T06:26:31.538Z,17.25
2022-09-26T06:29:00.991Z,15.65
2022-09-26T06:31:29.944Z,14.30
2022-09-26T06:33:58.477Z,13.63
2022-09-26T06:36:26.242Z,13.90
2022-09-26T06:38:55.320Z,15.52
2022-09-26T06:41:23.366Z,14.43
2022-09-26T06:43:52.436Z,17.23
2022-09-26T06:46:20.510Z,17.33
2022-09-26T06:48:48.301Z,19.27
2022-09-26T06:51:16.015Z,17.30
2022-09-26T06:53:45.981Z,18.63
2022-09-26T06:56:14.425Z,19.10
2022-09-26T06:58:42.349Z,19.42
2022-09-26T07:01:11.887Z,14.00
2022-09-26T07:03:45.135Z,15.88
2022-09-26T07:06:14.027Z,16.60
2022-09-26T07:09:01.385Z,19.33
2022-09-26T07:11:50.446Z,20.35
2022-09-26T07:14:17.869Z,20.25
2022-09-26T07:16:49.093Z,15.98
2022-09-26T07:19:17.279Z,16.75
2022-09-26T07:21:45.037Z,20.08
2022-09-26T07:24:14.226Z,18.55
2022-09-26T07:26:42.161Z,18.80
2022-09-26T07:29:10.026Z,20.73
2022-09-26T07:31:38.139Z,16.80
2022-09-26T07:34:08.646Z,16.02
2022-09-26T07:36:36.535Z,16.42
2022-09-26T07:39:04.355Z,17.33
2022-09-26T07:41:32.103Z,15.02
2022-09-26T07:47:05.458Z,13.82
2022-09-26T07:49:52.031Z,14.38
2022-09-26T07:52:20.612Z,17.40
2022-09-26T07:54:48.422Z,15.68
2022-09-26T07:57:19.387Z,12.73
2022-09-26T07:59:49.783Z,15.13
2022-09-26T08:02:24.913Z,15.45
2022-09-26T08:05:00.242Z,15.25
2022-09-26T08:07:29.257Z,16.48
2022-09-26T08:09:58.749Z,14.75
2022-09-26T08:12:27.927Z,15.43
2022-09-26T08:14:56.397Z,15.40
2022-09-26T08:17:24.171Z,16.85
2022-09-26T08:19:51.989Z,15.45
2022-09-26T08:22:21.138Z,16.80
2022-09-26T08:24:50.702Z,15.05
2022-09-26T08:27:19.144Z,11.02
2022-09-26T08:29:48.510Z,12.48
2022-09-26T08:32:17.431Z,10.70
2022-09-26T08:34:45.588Z,10.57
2022-09-26T08:37:13.540Z,11.27
2022-09-26T08:39:42.830Z,9.43
2022-09-26T08:42:25.935Z,9.35
2022-09-26T08:45:36.586Z,11.07
2022-09-26T08:48:13.720Z,8.35
2022-09-26T08:50:49.084Z,10.10
2022-09-26T08:53:19.938Z,8.85
2022-09-26T08:55:50.559Z,6.60
2022-09-26T08:58:23.185Z,7.20
2022-09-26T09:00:58.554Z,6.18
2022-09-26T09:03:31.781Z,7.50
2022-09-26T09:06:05.122Z,5.55
2022-09-26T09:08:38.459Z,6.95
2022-09-26T09:11:18.522Z,5.00
2022-09-26T09:14:03.151Z,5.85
2022-09-26T09:16:46.725Z,5.10
2022-09-26T09:19:22.662Z,5.15
2022-09-26T09:22:07.158Z,4.57
2022-09-26T09:24:51.869Z,6.80
2022-09-26T09:30:24.463Z,6.18
2022-09-26T09:32:55.722Z,5.20
2022-09-26T09:35:33.970Z,4.72
2022-09-26T09:38:03.747Z,4.82
2022-09-26T09:40:36.821Z,5.43
2022-09-26T09:43:09.047Z,5.32
2022-09-26T09:45:42.867Z,4.78
2022-09-26T09:48:13.072Z,5.32
2022-09-26T09:50:49.763Z,6.18
2022-09-26T09:53:38.255Z,4.47
2022-09-26T09:56:17.366Z,4.50
2022-09-26T09:59:03.584Z,4.78
2022-09-26T10:01:36.532Z,3.75
2022-09-26T10:04:13.169Z,6.63
2022-09-26T10:06:45.595Z,3.90
2022-09-26T10:09:35.215Z,3.83
2022-09-26T10:12:13.472Z,4.05
2022-09-26T10:14:50.383Z,5.53
2022-09-26T10:17:22.268Z,4.95
2022-09-26T10:19:50.668Z,3.75
2022-09-26T10:22:26.249Z,3.20
2022-09-26T10:25:00.934Z,4.40
2022-09-26T10:27:36.882Z,4.05
2022-09-26T10:30:21.841Z,3.60
2022-09-26T10:32:56.525Z,4.72
2022-09-26T10:35:26.708Z,4.78
2022-09-26T10:38:02.234Z,2.97
2022-09-26T10:43:30.441Z,4.47
2022-09-26T10:46:05.835Z,4.03
2022-09-26T10:48:47.056Z,3.20
2022-09-26T10:51:26.924Z,4.10
2022-09-26T10:54:04.335Z,5.40
2022-09-26T10:56:39.188Z,3.83
2022-09-26T10:59:09.898Z,6.30
2022-09-26T11:01:43.141Z,5.43
2022-09-26T11:04:38.326Z,4.05
2022-09-26T11:07:07.554Z,3.42
2022-09-26T11:09:37.053Z,3.58
2022-09-26T11:12:25.366Z,3.95
2022-09-26T11:14:56.936Z,6.47
2022-09-26T11:17:44.389Z,5.07
2022-09-26T11:20:17.800Z,4.95
2022-09-26T11:22:52.915Z,4.28
2022-09-26T11:25:26.537Z,4.60
2022-09-26T11:28:02.868Z,5.68
2022-09-26T11:30:34.798Z,4.00
2022-09-26T11:33:08.607Z,4.45
2022-09-26T11:35:46.757Z,2.83
2022-09-26T11:38:28.708Z,5.20
2022-09-26T11:41:38.898Z,3.88
2022-09-26T11:44:21.959Z,2.70
2022-09-26T11:47:03.882Z,4.10
2022-09-26T11:49:56.515Z,2.30
2022-09-26T11:52:35.332Z,2.20
2022-09-26T11:55:18.148Z,2.20
2022-09-26T11:57:54.839Z,1.88
2022-09-26T12:00:27.563Z,3.20
2022-09-26T12:03:37.101Z,3.80
2022-09-26T12:06:20.304Z,2.10
2022-09-26T12:09:04.119Z,1.95
2022-09-26T12:11:40.292Z,2.40
2022-09-26T12:14:19.648Z,3.72
2022-09-26T12:16:55.146Z,2.78
2022-09-26T12:19:35.891Z,2.53
2022-09-26T12:22:30.504Z,1.88
2022-09-26T12:25:25.494Z,33.72
2022-09-26T12:28:06.246Z,16.35
2022-09-26T12:30:41.407Z,2.08
2022-09-26T12:33:39.477Z,1.95
2022-09-26T12:36:18.994Z,2.40
2022-09-26T12:39:10.532Z,2.30
2022-09-26T12:41:54.854Z,2.55
2022-09-26T12:44:57.654Z,2.42
2022-09-26T12:47:41.577Z,2.83
2022-09-26T12:50:18.143Z,2.10
2022-09-26T12:53:12.113Z,3.17
2022-09-26T12:55:50.080Z,2.28
2022-09-26T12:58:33.013Z,2.13
2022-09-26T13:01:12.472Z,4.90
2022-09-26T13:04:05.536Z,6.30
2022-09-26T13:07:08.027Z,2.72
2022-09-26T13:09:55.069Z,4.78
2022-09-26T13:12:40.510Z,4.00
2022-09-26T13:15:24.729Z,3.17
2022-09-26T13:17:57.916Z,2.33
2022-09-26T13:20:32.123Z,3.42
2022-09-26T13:23:07.275Z,3.15
2022-09-26T13:25:49.318Z,5.47
2022-09-26T13:28:24.187Z,3.95
2022-09-26T13:30:58.141Z,3.05
2022-09-26T13:33:32.774Z,4.63
2022-09-26T13:36:04.642Z,3.38
2022-09-26T13:38:45.167Z,3.00
2022-09-26T13:41:30.092Z,5.25
2022-09-26T13:44:08.908Z,3.50
2022-09-26T13:46:51.116Z,2.95
2022-09-26T13:49:33.992Z,2.78
2022-09-26T13:52:25.322Z,3.72
2022-09-26T13:54:59.060Z,2.42
2022-09-26T13:57:36.626Z,1.95
2022-09-26T14:00:30.212Z,2.10
2022-09-26T14:03:39.469Z,2.13
2022-09-26T14:06:29.027Z,2.67
2022-09-26T14:09:28.463Z,2.85
2022-09-26T14:12:21.353Z,3.15
2022-09-26T14:15:16.357Z,2.80
2022-09-26T14:18:07.583Z,5.40
2022-09-26T14:20:52.243Z,3.08
2022-09-26T14:23:41.865Z,2.35
2022-09-26T14:26:15.126Z,2.22
2022-09-26T14:28:50.744Z,2.08
2022-09-26T14:34:27.286Z,2.97
2022-09-26T14:36:59.039Z,1.83
2022-09-26T14:39:36.263Z,1.73
2022-09-26T14:42:23.592Z,6.22
2022-09-26T14:44:58.443Z,2.50
2022-09-26T14:47:28.491Z,3.60
2022-09-26T14:50:03.425Z,1.75
2022-09-26T14:52:31.691Z,4.30
2022-09-26T14:55:02.135Z,1.85
2022-09-26T14:57:33.169Z,2.17
2022-09-26T15:00:02.098Z,1.60
2022-09-26T15:02:38.818Z,2.03
2022-09-26T15:05:26.078Z,2.17
2022-09-26T15:07:55.516Z,1.98
2022-09-26T15:10:40.163Z,3.67
2022-09-26T15:13:26.328Z,3.15
2022-09-26T15:16:01.188Z,1.52
2022-09-26T15:18:36.385Z,2.20
2022-09-26T15:21:16.340Z,1.50
2022-09-26T15:23:50.418Z,1.73
2022-09-26T15:26:21.893Z,1.60
2022-09-26T15:28:52.670Z,1.92
2022-09-26T15:31:23.541Z,1.75
2022-09-26T15:33:52.816Z,1.50
2022-09-26T15:36:22.173Z,1.60
2022-09-26T15:38:50.537Z,2.13
2022-09-26T15:41:34.366Z,1.67
2022-09-26T15:44:03.409Z,3.65
2022-09-26T15:46:32.151Z,2.72
2022-09-26T15:49:00.351Z,3.85
2022-09-26T15:51:39.147Z,3.38
2022-09-26T15:54:15.205Z,2.10
2022-09-26T15:56:49.574Z,3.53
2022-09-26T15:59:22.085Z,2.97
2022-09-26T16:01:50.243Z,2.92
2022-09-26T16:04:22.363Z,3.55
2022-09-26T16:06:58.103Z,2.47
2022-09-26T16:09:32.313Z,2.78
2022-09-26T16:12:02.787Z,2.10
2022-09-26T16:14:37.769Z,2.72
2022-09-26T16:17:14.772Z,2.63
2022-09-26T16:19:48.387Z,9.02
2022-09-26T16:22:45.405Z,8.02
2022-09-26T16:25:26.350Z,7.53
2022-09-26T16:28:02.325Z,9.65
2022-09-26T16:30:43.075Z,4.53
2022-09-26T16:33:27.984Z,3.72
2022-09-26T16:35:56.038Z,6.63
2022-09-26T16:38:29.799Z,6.78
2022-09-26T16:41:02.503Z,4.90
2022-09-26T16:43:32.754Z,3.53
2022-09-26T16:46:03.724Z,6.45
2022-09-26T16:48:37.757Z,4.40
2022-09-26T16:51:31.252Z,3.08
2022-09-26T16:54:19.320Z,6.50
2022-09-26T16:56:49.976Z,7.45
2022-09-26T16:59:22.328Z,3.75
2022-09-26T17:01:53.825Z,4.35
2022-09-26T17:04:26.237Z,3.55
2022-09-26T17:06:54.305Z,5.53
2022-09-26T17:09:27.998Z,5.18
2022-09-26T17:11:57.698Z,4.82
2022-09-26T17:14:30.082Z,2.95
2022-09-26T17:17:00.139Z,3.83
2022-09-26T17:19:30.739Z,2.75
2022-09-26T17:21:59.378Z,3.33
2022-09-26T17:24:30.971Z,5.28
2022-09-26T17:27:01.435Z,5.22
2022-09-26T17:29:33.592Z,4.10
2022-09-26T17:32:09.624Z,4.72
2022-09-26T17:34:37.881Z,4.30
2022-09-26T17:37:05.765Z,3.40
2022-09-26T17:39:34.927Z,7.93
2022-09-26T17:42:03.464Z,4.38
2022-09-26T17:44:31.673Z,8.93
2022-09-26T17:47:00.118Z,5.03
2022-09-26T17:49:31.797Z,5.35
2022-09-26T17:52:02.040Z,3.97
2022-09-26T17:54:34.551Z,6.75
2022-09-26T17:57:03.700Z,4.82
2022-09-26T17:59:31.837Z,4.00
2022-09-26T18:02:02.979Z,7.05
2022-09-26T18:04:32.029Z,6.15
2022-09-26T18:07:04.425Z,4.45
2022-09-26T18:09:35.193Z,6.20
2022-09-26T18:12:05.582Z,3.85
2022-09-26T18:14:35.428Z,4.20
2022-09-26T18:17:04.379Z,4.07
2022-09-26T18:19:35.408Z,4.78
2022-09-26T18:22:03.594Z,3.60
2022-09-26T18:24:31.588Z,3.67
2022-09-26T18:27:03.865Z,3.80
2022-09-26T18:29:36.882Z,5.28
2022-09-26T18:32:07.501Z,3.58
2022-09-26T18:34:35.345Z,6.75
2022-09-26T18:37:03.164Z,3.15
2022-09-26T18:39:31.511Z,5.10
2022-09-26T18:42:04.964Z,4.05
2022-09-26T18:44:35.130Z,7.32
2022-09-26T18:47:05.819Z,5.05
2022-09-26T18:49:35.695Z,11.07
2022-09-26T18:52:03.891Z,6.45
2022-09-26T18:54:34.630Z,8.27
2022-09-26T18:57:25.047Z,6.20
2022-09-26T18:59:58.020Z,5.13
2022-09-26T19:02:29.694Z,4.90
2022-09-26T19:04:59.833Z,4.18
2022-09-26T19:07:27.859Z,3.40
2022-09-26T19:09:55.731Z,4.25
2022-09-26T19:12:23.503Z,4.10
2022-09-26T19:14:52.176Z,3.28
2022-09-26T19:17:21.995Z,3.13
2022-09-26T19:19:49.824Z,3.67
2022-09-26T19:22:18.431Z,8.02
2022-09-26T19:24:49.842Z,3.80
2022-09-26T19:27:20.801Z,3.40
2022-09-26T19:29:55.991Z,6.82
2022-09-26T19:32:32.117Z,8.73
2022-09-26T19:35:03.102Z,6.38
2022-09-26T19:37:30.902Z,3.75
2022-09-26T19:39:59.034Z,3.17
2022-09-26T19:42:27.198Z,3.20
2022-09-26T19:44:56.402Z,3.72
2022-09-26T19:47:34.470Z,2.80
2022-09-26T19:50:03.655Z,6.13
2022-09-26T19:52:31.623Z,6.30
2022-09-26T19:55:00.214Z,4.15
2022-09-26T19:57:28.422Z,4.72
2022-09-26T19:59:56.633Z,4.78
2022-09-26T20:02:31.971Z,3.70
2022-09-26T20:05:00.026Z,3.20
2022-09-26T20:07:27.866Z,4.32
2022-09-26T20:09:56.608Z,3.10
2022-09-26T20:12:24.429Z,4.97
2022-09-26T20:14:52.247Z,4.05
2022-09-26T20:17:26.802Z,4.28
2022-09-26T20:19:58.961Z,2.83
2022-09-26T20:22:27.348Z,7.68
2022-09-26T20:24:56.279Z,2.75
2022-09-26T20:27:27.877Z,4.35
2022-09-26T20:30:14.271Z,5.65
2022-09-26T20:32:43.485Z,3.72
2022-09-26T20:35:15.529Z,3.85
2022-09-26T20:37:43.514Z,2.40
2022-09-26T20:40:18.167Z,4.88
2022-09-26T20:42:50.361Z,3.33
2022-09-26T20:45:20.447Z,4.00
2022-09-26T20:47:49.656Z,3.45
2022-09-26T20:50:19.473Z,3.72
2022-09-26T20:52:47.411Z,3.97
2022-09-26T20:55:16.535Z,5.47
2022-09-26T20:57:45.263Z,3.05
2022-09-26T21:00:15.913Z,4.13
2022-09-26T21:02:44.742Z,5.00
2022-09-26T21:05:19.660Z,12.80
2022-09-26T21:07:47.998Z,3.42
2022-09-26T21:10:24.093Z,2.55
2022-09-26T21:12:52.289Z,4.47
2022-09-26T21:15:20.736Z,5.03
2022-09-26T21:17:49.395Z,3.25
2022-09-26T21:20:23.985Z,4.15
2022-09-26T21:22:52.068Z,4.23
2022-09-26T21:25:21.658Z,2.72
2022-09-26T21:27:52.248Z,2.88
2022-09-26T21:30:21.094Z,3.67
2022-09-26T21:32:52.609Z,4.05
2022-09-26T21:35:23.917Z,2.58
2022-09-26T21:37:53.790Z,3.15
2022-09-26T21:40:25.181Z,2.75
2022-09-26T21:42:57.843Z,3.55
2022-09-26T21:45:27.836Z,4.35
2022-09-26T21:47:56.445Z,3.05
2022-09-26T21:50:29.460Z,3.88
2022-09-26T21:53:02.012Z,2.83
2022-09-26T21:55:35.661Z,4.28
2022-09-26T21:58:08.211Z,6.88
2022-09-26T22:00:36.596Z,2.80
2022-09-26T22:03:04.698Z,2.60
2022-09-26T22:05:34.032Z,3.28
2022-09-26T22:08:02.422Z,3.78
2022-09-26T22:10:30.316Z,2.70
2022-09-26T22:12:58.394Z,3.25
2022-09-26T22:15:26.273Z,2.90
2022-09-26T22:17:54.808Z,2.58
2022-09-26T22:20:22.981Z,4.45
2022-09-26T22:22:52.188Z,7.78
2022-09-26T22:25:20.032Z,2.78
2022-09-26T22:27:47.951Z,2.97
2022-09-26T22:30:15.822Z,3.60
2022-09-26T22:32:43.642Z,3.15
2022-09-26T22:35:11.451Z,3.90
2022-09-26T22:37:39.843Z,2.45
2022-09-26T22:40:10.120Z,2.85
2022-09-26T22:42:37.950Z,3.08
2022-09-26T22:45:06.327Z,2.25
2022-09-26T22:47:34.128Z,2.42
2022-09-26T22:50:01.917Z,4.07
2022-09-26T22:52:29.831Z,2.65
2022-09-26T22:54:57.710Z,2.30
2022-09-26T22:57:26.903Z,2.30
2022-09-26T23:05:42.817Z,2.22
2022-09-26T23:08:10.611Z,3.08
2022-09-26T23:10:38.734Z,2.95
2022-09-26T23:13:06.550Z,2.65
2022-09-26T23:15:34.340Z,5.63
2022-09-26T23:18:02.150Z,5.40
2022-09-26T23:20:29.953Z,2.83
2022-09-26T23:22:59.168Z,2.33
2022-09-26T23:25:26.996Z,4.22
2022-09-26T23:27:54.751Z,3.13
2022-09-26T23:30:22.814Z,2.40
2022-09-26T23:32:50.653Z,3.67
2022-09-26T23:35:18.426Z,3.90
2022-09-26T23:37:46.274Z,2.53
2022-09-26T23:40:15.615Z,4.40
2022-09-26T23:42:43.693Z,2.90
2022-09-26T23:45:12.111Z,3.50
2022-09-26T23:47:39.907Z,3.28
2022-09-26T23:50:08.269Z,3.22
2022-09-26T23:52:36.194Z,2.85
2022-09-26T23:55:04.331Z,2.58
2022-09-26T23:57:33.465Z,3.40
